createdAt,value
2018-08-18T00:02:05.941Z,88.80
2018-08-18T00:04:40.284Z,88.30
2018-08-18T00:07:14.455Z,88.40
2018-08-18T00:09:48.804Z,88.10
2018-08-18T00:12:29.333Z,88.50
2018-08-18T00:15:04.208Z,88.60
2018-08-18T00:17:39.096Z,88.50
2018-08-18T00:20:18.176Z,88.60
2018-08-18T00:22:52.391Z,88.30
2018-08-18T00:25:26.676Z,88.90
2018-08-18T00:28:12.352Z,89.10
2018-08-18T00:30:46.531Z,88.90
2018-08-18T00:33:20.852Z,89.00
2018-08-18T00:35:55.304Z,90.10
2018-08-18T00:38:29.479Z,89.90
2018-08-18T00:41:03.916Z,90.00
2018-08-18T00:43:38.108Z,90.00
2018-08-18T00:46:12.320Z,90.80
2018-08-18T00:48:46.653Z,91.00
2018-08-18T00:51:24.692Z,90.90
2018-08-18T00:53:58.896Z,90.80
2018-08-18T00:56:34.915Z,90.80
2018-08-18T00:59:09.068Z,90.60
2018-08-18T01:01:43.716Z,90.70
2018-08-18T01:04:17.900Z,91.10
2018-08-18T01:06:52.274Z,90.90
2018-08-18T01:09:26.448Z,90.90
2018-08-18T01:12:00.840Z,91.00
2018-08-18T01:14:34.927Z,90.80
2018-08-18T01:17:09.304Z,91.20
2018-08-18T01:19:43.568Z,90.90
2018-08-18T01:22:17.848Z,91.00
2018-08-18T01:24:52.680Z,91.20
2018-08-18T01:27:26.953Z,91.10
2018-08-18T01:30:03.346Z,91.20
2018-08-18T01:32:37.491Z,91.40
2018-08-18T01:35:11.832Z,91.20
2018-08-18T01:37:46.053Z,91.40
2018-08-18T01:40:20.420Z,91.50
2018-08-18T01:42:54.731Z,91.40
2018-08-18T01:45:28.980Z,91.70
2018-08-18T01:48:03.196Z,91.50
2018-08-18T01:50:37.403Z,91.80
2018-08-18T01:53:11.628Z,91.80
2018-08-18T01:55:45.924Z,91.80
2018-08-18T01:58:20.376Z,91.80
2018-08-18T02:00:54.580Z,91.40
2018-08-18T02:03:28.944Z,91.80
2018-08-18T02:06:03.387Z,92.30
2018-08-18T02:08:53.910Z,92.80
2018-08-18T02:11:28.281Z,92.80
2018-08-18T02:14:02.456Z,92.30
2018-08-18T02:16:36.696Z,92.50
2018-08-18T02:19:11.020Z,92.30
2018-08-18T02:21:45.200Z,92.90
2018-08-18T02:24:19.424Z,93.10
2018-08-18T02:26:53.713Z,93.00
2018-08-18T02:29:28.052Z,92.60
2018-08-18T02:32:02.408Z,92.10
2018-08-18T02:34:36.604Z,92.00
2018-08-18T02:37:10.799Z,92.00
2018-08-18T02:39:45.108Z,92.40
2018-08-18T02:42:19.456Z,93.00
2018-08-18T02:44:54.057Z,92.80
2018-08-18T02:47:28.292Z,92.50
2018-08-18T02:50:02.625Z,92.50
2018-08-18T02:52:37.315Z,92.90
2018-08-18T02:55:12.151Z,93.50
2018-08-18T02:57:46.483Z,93.80
2018-08-18T03:00:26.747Z,93.50
2018-08-18T03:03:01.044Z,93.60
2018-08-18T03:05:35.290Z,93.60
2018-08-18T03:08:10.344Z,93.40
2018-08-18T03:10:44.556Z,93.70
2018-08-18T03:13:18.752Z,94.00
2018-08-18T03:15:52.903Z,93.60
2018-08-18T03:18:35.943Z,92.90
2018-08-18T03:21:10.249Z,93.40
2018-08-18T03:23:56.271Z,92.80
2018-08-18T03:26:48.613Z,92.60
2018-08-18T03:29:23.958Z,92.60
2018-08-18T03:31:58.251Z,92.90
2018-08-18T03:34:32.721Z,93.10
2018-08-18T03:37:22.663Z,93.90
2018-08-18T03:39:57.057Z,93.60
2018-08-18T03:42:35.615Z,93.50
2018-08-18T03:45:09.928Z,93.10
2018-08-18T03:47:44.255Z,93.30
2018-08-18T03:50:18.648Z,93.40
2018-08-18T03:52:52.975Z,93.80
2018-08-18T03:55:38.175Z,93.60
2018-08-18T03:58:12.496Z,93.90
2018-08-18T04:00:46.820Z,93.80
2018-08-18T04:03:21.131Z,93.60
2018-08-18T04:05:55.308Z,93.30
2018-08-18T04:08:29.595Z,93.50
2018-08-18T04:11:03.838Z,93.20
2018-08-18T04:13:38.236Z,93.30
2018-08-18T04:16:12.476Z,93.20
2018-08-18T04:18:47.514Z,93.70
2018-08-18T04:21:21.747Z,93.80
2018-08-18T04:23:55.963Z,93.80
2018-08-18T04:26:30.808Z,94.00
2018-08-18T04:29:05.059Z,94.30
2018-08-18T04:31:39.352Z,93.80
2018-08-18T04:34:13.623Z,94.20
2018-08-18T04:36:47.824Z,94.00
2018-08-18T04:39:22.211Z,94.20
2018-08-18T04:41:56.436Z,94.50
2018-08-18T04:44:30.800Z,94.40
2018-08-18T04:47:05.368Z,94.00
2018-08-18T04:49:39.607Z,93.70
2018-08-18T04:52:13.900Z,93.30
2018-08-18T04:54:48.257Z,93.30
2018-08-18T04:57:22.501Z,93.60
2018-08-18T04:59:57.261Z,93.20
2018-08-18T05:02:31.412Z,93.70
2018-08-18T05:05:07.572Z,94.50
2018-08-18T05:07:45.936Z,94.90
2018-08-18T05:10:21.187Z,94.90
2018-08-18T05:12:55.436Z,94.50
2018-08-18T05:15:29.853Z,94.20
2018-08-18T05:18:04.216Z,94.00
2018-08-18T05:20:38.513Z,94.00
2018-08-18T05:23:24.071Z,93.80
2018-08-18T05:25:58.336Z,94.40
2018-08-18T05:28:32.698Z,94.10
2018-08-18T05:31:07.024Z,94.10
2018-08-18T05:33:41.360Z,94.00
2018-08-18T05:36:15.688Z,93.90
2018-08-18T05:38:50.048Z,93.80
2018-08-18T05:41:24.368Z,93.80
2018-08-18T05:43:58.779Z,93.80
2018-08-18T05:46:33.047Z,93.60
2018-08-18T05:49:12.831Z,93.00
2018-08-18T05:51:48.911Z,93.30
2018-08-18T05:54:25.888Z,93.20
2018-08-18T05:57:00.212Z,92.80
2018-08-18T05:59:35.241Z,92.50
2018-08-18T06:02:09.571Z,92.70
2018-08-18T06:04:43.808Z,93.10
2018-08-18T06:07:17.992Z,92.90
2018-08-18T06:09:52.255Z,92.30
2018-08-18T06:12:26.600Z,91.70
2018-08-18T06:15:02.080Z,91.50
2018-08-18T06:17:36.440Z,91.00
2018-08-18T06:20:10.784Z,90.10
2018-08-18T06:22:45.044Z,90.00
2018-08-18T06:25:19.359Z,90.20
2018-08-18T06:27:53.704Z,90.40
2018-08-18T06:30:28.156Z,90.90
2018-08-18T06:33:02.535Z,90.60
2018-08-18T06:35:36.781Z,90.40
2018-08-18T06:38:11.124Z,87.70
2018-08-18T06:40:49.620Z,87.90
2018-08-18T06:43:23.852Z,87.70
2018-08-18T06:45:58.708Z,87.60
2018-08-18T06:48:34.648Z,85.50
2018-08-18T06:51:08.841Z,85.50
2018-08-18T06:53:45.139Z,86.20
2018-08-18T06:56:19.320Z,85.50
2018-08-18T06:58:57.764Z,85.40
2018-08-18T07:01:32.072Z,85.20
2018-08-18T07:04:10.711Z,85.50
2018-08-18T07:06:44.876Z,84.90
2018-08-18T07:09:19.308Z,85.20
2018-08-18T07:11:53.688Z,84.90
2018-08-18T07:14:28.014Z,84.60
2018-08-18T07:17:02.219Z,84.50
2018-08-18T07:19:36.528Z,84.90
2018-08-18T07:22:13.912Z,84.60
2018-08-18T07:24:48.108Z,83.60
2018-08-18T07:27:22.323Z,83.00
2018-08-18T07:29:56.748Z,82.00
2018-08-18T07:32:31.164Z,81.80
2018-08-18T07:35:05.599Z,81.50
2018-08-18T07:37:39.936Z,80.40
2018-08-18T07:40:14.231Z,81.00
2018-08-18T07:42:54.750Z,77.80
2018-08-18T07:45:29.013Z,76.90
2018-08-18T07:48:03.510Z,76.40
2018-08-18T07:50:37.811Z,75.70
2018-08-18T07:53:12.278Z,77.00
2018-08-18T07:55:46.633Z,73.10
2018-08-18T07:58:22.256Z,70.90
2018-08-18T08:00:57.171Z,67.60
2018-08-18T08:03:31.856Z,64.60
2018-08-18T08:06:06.148Z,63.70
2018-08-18T08:08:45.747Z,61.30
2018-08-18T08:11:19.972Z,59.00
2018-08-18T08:13:54.164Z,60.80
2018-08-18T08:16:28.312Z,59.50
2018-08-18T08:19:02.784Z,57.20
2018-08-18T08:21:36.952Z,56.70
2018-08-18T08:24:11.285Z,56.10
2018-08-18T08:26:45.480Z,54.00
2018-08-18T08:29:23.764Z,53.70
2018-08-18T08:31:57.916Z,53.20
2018-08-18T08:34:36.492Z,53.00
2018-08-18T08:37:11.364Z,51.70
2018-08-18T08:39:46.296Z,52.20
2018-08-18T08:42:20.474Z,52.70
2018-08-18T08:44:55.164Z,52.20
2018-08-18T08:47:29.336Z,51.00
2018-08-18T08:50:04.142Z,52.00
2018-08-18T08:52:46.600Z,52.30
2018-08-18T08:55:23.163Z,52.90
2018-08-18T08:57:57.355Z,52.60
2018-08-18T09:00:31.668Z,52.50
2018-08-18T09:03:06.147Z,53.40
2018-08-18T09:05:40.336Z,53.50
2018-08-18T09:08:14.668Z,51.80
2018-08-18T09:10:49.184Z,52.10
2018-08-18T09:13:23.500Z,51.60
2018-08-18T09:15:57.840Z,51.20
2018-08-18T09:18:32.084Z,51.60
2018-08-18T09:21:06.299Z,53.60
2018-08-18T09:23:43.372Z,51.40
2018-08-18T09:26:17.810Z,51.00
2018-08-18T09:28:52.162Z,50.70
2018-08-18T09:31:26.445Z,50.10
2018-08-18T09:34:00.752Z,51.40
2018-08-18T09:36:35.073Z,51.30
2018-08-18T09:39:13.404Z,50.30
2018-08-18T09:41:48.199Z,51.20
2018-08-18T09:44:26.595Z,50.80
2018-08-18T09:47:00.943Z,50.70
2018-08-18T09:49:35.408Z,55.30
2018-08-18T09:52:11.366Z,50.50
2018-08-18T09:54:45.496Z,55.40
2018-08-18T09:57:19.820Z,54.30
2018-08-18T09:59:54.024Z,51.40
2018-08-18T10:02:28.216Z,52.00
2018-08-18T10:05:02.536Z,49.70
2018-08-18T10:10:36.489Z,49.10
2018-08-18T10:13:10.717Z,55.40
2018-08-18T10:15:45.175Z,51.20
2018-08-18T10:18:19.408Z,52.10
2018-08-18T10:20:53.768Z,53.60
2018-08-18T10:23:27.939Z,53.90
2018-08-18T10:26:02.284Z,51.80
2018-08-18T10:28:36.579Z,49.70
2018-08-18T10:31:10.940Z,50.80
2018-08-18T10:33:45.132Z,49.00
2018-08-18T10:36:19.391Z,50.70
2018-08-18T10:38:53.668Z,50.40
2018-08-18T10:41:28.002Z,51.30
2018-08-18T10:44:02.152Z,48.40
2018-08-18T10:46:36.488Z,50.80
2018-08-18T10:49:20.768Z,51.60
2018-08-18T10:52:06.493Z,52.30
2018-08-18T10:54:40.716Z,50.00
2018-08-18T10:57:26.404Z,49.90
2018-08-18T11:00:05.480Z,51.80
2018-08-18T11:02:42.153Z,51.30
2018-08-18T11:05:17.004Z,50.90
2018-08-18T11:07:57.596Z,50.70
2018-08-18T11:10:34.336Z,51.90
2018-08-18T11:13:08.792Z,48.00
2018-08-18T11:15:44.130Z,47.40
2018-08-18T11:18:18.332Z,51.10
2018-08-18T11:20:52.523Z,50.20
2018-08-18T11:23:26.819Z,48.70
2018-08-18T11:26:01.168Z,50.60
2018-08-18T11:28:35.569Z,48.70
2018-08-18T11:31:09.669Z,51.80
2018-08-18T11:33:44.646Z,49.10
2018-08-18T11:36:19.976Z,51.10
2018-08-18T11:38:54.244Z,50.60
2018-08-18T11:41:28.760Z,50.60
2018-08-18T11:44:03.019Z,52.00
2018-08-18T11:46:42.512Z,47.80
2018-08-18T11:49:17.616Z,47.90
2018-08-18T11:51:52.010Z,48.40
2018-08-18T11:54:26.377Z,47.90
2018-08-18T11:57:00.559Z,47.70
2018-08-18T11:59:34.961Z,51.40
2018-08-18T12:02:09.299Z,49.00
2018-08-18T12:04:43.736Z,50.90
2018-08-18T12:07:17.987Z,51.40
2018-08-18T12:09:53.144Z,50.20
2018-08-18T12:12:27.575Z,49.80
2018-08-18T12:15:01.889Z,51.10
2018-08-18T12:17:40.675Z,50.40
2018-08-18T12:20:16.193Z,52.80
2018-08-18T12:22:51.328Z,52.10
2018-08-18T12:25:25.667Z,46.90
2018-08-18T12:28:00.530Z,48.50
2018-08-18T12:30:34.733Z,50.00
2018-08-18T12:33:14.528Z,51.30
2018-08-18T12:35:49.112Z,46.40
2018-08-18T12:38:23.311Z,48.80
2018-08-18T12:40:57.512Z,51.60
2018-08-18T12:43:35.865Z,49.60
2018-08-18T12:46:11.709Z,44.70
2018-08-18T12:48:47.105Z,48.50
2018-08-18T12:51:21.744Z,47.40
2018-08-18T12:53:57.068Z,51.10
2018-08-18T12:56:31.272Z,50.90
2018-08-18T12:59:07.060Z,43.60
2018-08-18T13:01:49.040Z,49.90
2018-08-18T13:04:23.424Z,52.20
2018-08-18T13:06:57.741Z,50.10
2018-08-18T13:09:31.975Z,50.10
2018-08-18T13:12:06.376Z,51.90
2018-08-18T13:14:40.652Z,48.00
2018-08-18T13:17:14.949Z,52.30
2018-08-18T13:19:49.303Z,45.10
2018-08-18T13:22:23.557Z,49.10
2018-08-18T13:24:57.732Z,51.30
2018-08-18T13:27:32.812Z,52.50
2018-08-18T13:30:07.212Z,47.20
2018-08-18T13:32:41.543Z,47.70
2018-08-18T13:35:15.899Z,49.80
2018-08-18T13:37:50.063Z,48.10
2018-08-18T13:40:26.057Z,50.10
2018-08-18T13:43:00.247Z,48.80
2018-08-18T13:45:43.651Z,52.10
2018-08-18T13:48:17.932Z,53.00
2018-08-18T13:50:52.304Z,52.70
2018-08-18T13:53:26.516Z,52.30
2018-08-18T13:56:00.812Z,52.90
2018-08-18T13:58:34.986Z,51.60
2018-08-18T14:01:23.860Z,51.20
2018-08-18T14:03:58.165Z,45.60
2018-08-18T14:06:39.489Z,51.60
2018-08-18T14:09:13.748Z,50.00
2018-08-18T14:11:48.408Z,52.60
2018-08-18T14:14:22.690Z,49.20
2018-08-18T14:16:57.007Z,48.40
2018-08-18T14:19:31.272Z,51.60
2018-08-18T14:22:07.529Z,46.60
2018-08-18T14:24:41.955Z,51.70
2018-08-18T14:27:18.516Z,52.70
2018-08-18T14:29:52.739Z,54.10
2018-08-18T14:32:28.900Z,53.90
2018-08-18T14:35:05.776Z,45.70
2018-08-18T14:37:41.426Z,52.40
2018-08-18T14:40:17.286Z,54.10
2018-08-18T14:42:51.892Z,53.40
2018-08-18T14:45:27.056Z,48.10
2018-08-18T14:48:01.495Z,46.50
2018-08-18T14:50:35.699Z,46.70
2018-08-18T14:53:15.899Z,48.20
2018-08-18T14:55:50.843Z,47.40
2018-08-18T14:58:31.778Z,47.60
2018-08-18T15:01:11.592Z,46.40
2018-08-18T15:03:45.793Z,46.40
2018-08-18T15:06:19.984Z,47.40
2018-08-18T15:08:54.322Z,47.80
2018-08-18T15:11:28.682Z,46.90
2018-08-18T15:14:03.015Z,46.30
2018-08-18T15:16:37.456Z,47.60
2018-08-18T15:19:11.909Z,48.90
2018-08-18T15:21:47.576Z,48.60
2018-08-18T15:24:22.116Z,46.40
2018-08-18T15:26:56.320Z,45.50
2018-08-18T15:29:30.728Z,45.30
2018-08-18T15:32:05.196Z,46.40
2018-08-18T15:34:39.415Z,46.00
2018-08-18T15:37:13.640Z,46.40
2018-08-18T15:39:47.936Z,44.80
2018-08-18T15:42:22.123Z,45.80
2018-08-18T15:44:57.341Z,47.30
2018-08-18T15:47:31.539Z,46.40
2018-08-18T15:50:05.871Z,45.70
2018-08-18T15:52:40.416Z,45.80
2018-08-18T15:55:14.735Z,47.90
2018-08-18T15:57:49.060Z,45.20
2018-08-18T16:00:31.035Z,45.60
2018-08-18T16:03:05.301Z,44.40
2018-08-18T16:05:39.500Z,44.60
2018-08-18T16:08:13.864Z,46.20
2018-08-18T16:10:48.487Z,44.30
2018-08-18T16:13:22.664Z,46.80
2018-08-18T16:15:57.015Z,47.40
2018-08-18T16:18:31.772Z,46.00
2018-08-18T16:21:16.647Z,46.40
2018-08-18T16:23:51.245Z,45.80
2018-08-18T16:26:25.400Z,46.90
2018-08-18T16:28:59.707Z,47.60
2018-08-18T16:31:34.359Z,48.50
2018-08-18T16:34:08.868Z,49.00
2018-08-18T16:36:45.911Z,48.70
2018-08-18T16:39:20.252Z,50.70
2018-08-18T16:41:54.615Z,48.60
2018-08-18T16:44:28.916Z,50.30
2018-08-18T16:47:04.656Z,50.80
2018-08-18T16:49:40.056Z,52.30
2018-08-18T16:52:15.245Z,52.70
2018-08-18T16:54:49.535Z,52.20
2018-08-18T16:57:24.287Z,52.50
2018-08-18T16:59:58.715Z,52.30
2018-08-18T17:02:34.913Z,53.20
2018-08-18T17:05:09.592Z,54.30
2018-08-18T17:07:44.346Z,55.60
2018-08-18T17:10:18.660Z,56.00
2018-08-18T17:12:52.927Z,56.90
2018-08-18T17:15:27.331Z,57.10
2018-08-18T17:18:01.656Z,58.10
2018-08-18T17:20:37.090Z,57.50
2018-08-18T17:23:11.447Z,57.60
2018-08-18T17:25:45.727Z,57.40
2018-08-18T17:28:19.903Z,56.60
2018-08-18T17:30:54.220Z,56.40
2018-08-18T17:33:28.832Z,57.70
2018-08-18T17:36:03.080Z,58.10
2018-08-18T17:38:37.379Z,57.80
2018-08-18T17:41:11.732Z,57.60
2018-08-18T17:43:45.924Z,57.50
2018-08-18T17:46:20.104Z,58.10
2018-08-18T17:48:54.306Z,57.70
2018-08-18T17:51:28.616Z,57.20
2018-08-18T17:54:03.535Z,57.50
2018-08-18T17:56:37.750Z,57.60
2018-08-18T17:59:11.900Z,57.90
2018-08-18T18:01:59.688Z,59.50
2018-08-18T18:04:34.275Z,60.60
2018-08-18T18:07:09.819Z,59.00
2018-08-18T18:09:44.020Z,59.10
2018-08-18T18:12:23.156Z,59.40
2018-08-18T18:14:57.479Z,58.70
2018-08-18T18:17:34.468Z,59.20
2018-08-18T18:20:08.795Z,58.50
2018-08-18T18:22:48.459Z,59.10
2018-08-18T18:25:22.680Z,59.40
2018-08-18T18:27:57.141Z,59.00
2018-08-18T18:30:31.363Z,60.30
2018-08-18T18:33:06.372Z,61.10
2018-08-18T18:35:40.678Z,59.80
2018-08-18T18:38:15.004Z,60.50
2018-08-18T18:40:49.307Z,61.20
2018-08-18T18:43:23.604Z,60.40
2018-08-18T18:45:58.579Z,61.50
2018-08-18T18:48:32.865Z,61.70
2018-08-18T18:51:07.155Z,61.20
2018-08-18T18:53:47.487Z,62.10
2018-08-18T18:56:21.727Z,62.80
2018-08-18T18:58:55.904Z,61.90
2018-08-18T19:01:30.188Z,62.70
2018-08-18T19:04:04.444Z,62.40
2018-08-18T19:06:53.260Z,63.40
2018-08-18T19:09:27.583Z,63.90
2018-08-18T19:12:01.828Z,64.10
2018-08-18T19:14:36.148Z,64.20
2018-08-18T19:17:10.524Z,63.90
2018-08-18T19:19:44.852Z,63.40
2018-08-18T19:22:19.159Z,64.50
2018-08-18T19:24:53.335Z,63.70
2018-08-18T19:27:27.624Z,64.20
2018-08-18T19:30:01.846Z,64.30
2018-08-18T19:32:36.241Z,64.80
2018-08-18T19:35:10.740Z,64.90
2018-08-18T19:37:50.717Z,64.90
2018-08-18T19:40:24.947Z,65.50
2018-08-18T19:42:59.204Z,65.60
2018-08-18T19:45:33.624Z,65.80
2018-08-18T19:48:08.571Z,66.40
2018-08-18T19:50:54.060Z,66.70
2018-08-18T19:53:30.872Z,67.40
2018-08-18T19:56:08.211Z,67.30
2018-08-18T19:58:42.608Z,66.90
2018-08-18T20:01:16.990Z,67.20
2018-08-18T20:03:51.624Z,67.60
2018-08-18T20:06:25.920Z,68.10
2018-08-18T20:09:00.278Z,67.90
2018-08-18T20:11:34.807Z,67.90
2018-08-18T20:14:08.995Z,67.90
2018-08-18T20:16:43.284Z,68.90
2018-08-18T20:19:17.531Z,68.80
2018-08-18T20:21:51.897Z,68.20
2018-08-18T20:24:26.268Z,69.00
2018-08-18T20:27:00.575Z,69.40
2018-08-18T20:29:34.875Z,69.60
2018-08-18T20:32:09.248Z,69.90
2018-08-18T20:34:43.576Z,70.60
2018-08-18T20:37:17.743Z,70.50
2018-08-18T20:39:52.064Z,70.30
2018-08-18T20:42:31.976Z,71.20
2018-08-18T20:45:06.327Z,72.00
2018-08-18T20:47:41.919Z,71.80
2018-08-18T20:50:16.252Z,72.40
2018-08-18T20:52:52.396Z,72.50
2018-08-18T20:55:26.792Z,72.90
2018-08-18T20:58:01.035Z,73.30
2018-08-18T21:00:35.368Z,73.60
2018-08-18T21:03:09.584Z,73.50
2018-08-18T21:05:43.948Z,74.00
2018-08-18T21:08:18.299Z,74.20
2018-08-18T21:10:52.703Z,74.60
2018-08-18T21:13:26.982Z,74.70
2018-08-18T21:16:01.192Z,74.50
2018-08-18T21:18:35.560Z,74.40
2018-08-18T21:21:24.079Z,75.30
2018-08-18T21:23:58.324Z,75.50
2018-08-18T21:26:32.737Z,75.40
2018-08-18T21:29:07.096Z,76.20
2018-08-18T21:31:41.657Z,76.00
2018-08-18T21:34:16.049Z,77.20
2018-08-18T21:36:50.335Z,76.90
2018-08-18T21:39:24.568Z,76.70
2018-08-18T21:41:58.851Z,77.20
2018-08-18T21:44:33.147Z,78.50
2018-08-18T21:47:07.344Z,77.70
2018-08-18T21:49:45.134Z,78.30
2018-08-18T21:52:19.287Z,77.80
2018-08-18T21:54:53.516Z,78.00
2018-08-18T21:57:27.860Z,78.40
2018-08-18T22:00:02.208Z,78.10
2018-08-18T22:02:41.718Z,78.90
2018-08-18T22:05:15.899Z,79.00
2018-08-18T22:07:51.118Z,78.90
2018-08-18T22:10:25.496Z,78.90
2018-08-18T22:12:59.711Z,80.90
2018-08-18T22:15:33.972Z,80.00
2018-08-18T22:18:08.598Z,80.00
2018-08-18T22:20:43.028Z,80.50
2018-08-18T22:23:17.364Z,81.10
2018-08-18T22:25:51.507Z,81.60
2018-08-18T22:28:25.848Z,81.00
2018-08-18T22:31:00.216Z,80.80
2018-08-18T22:33:38.600Z,81.70
2018-08-18T22:36:12.883Z,81.90
2018-08-18T22:38:47.191Z,81.40
2018-08-18T22:41:21.556Z,82.10
2018-08-18T22:43:56.480Z,81.60
2018-08-18T22:46:30.812Z,82.50
2018-08-18T22:49:05.200Z,82.30
2018-08-18T22:51:39.397Z,82.90
2018-08-18T22:54:13.820Z,83.00
2018-08-18T22:56:52.376Z,83.60
2018-08-18T22:59:26.747Z,83.50
2018-08-18T23:02:01.324Z,83.80
2018-08-18T23:04:36.767Z,84.10
2018-08-18T23:07:11.048Z,84.10
2018-08-18T23:09:45.363Z,84.40
2018-08-18T23:12:19.684Z,84.10
2018-08-18T23:14:53.869Z,84.10
2018-08-18T23:17:28.236Z,84.20
2018-08-18T23:20:02.464Z,84.90
2018-08-18T23:22:53.530Z,84.80
2018-08-18T23:25:29.920Z,84.70
2018-08-18T23:28:04.235Z,84.90
2018-08-18T23:30:39.515Z,85.30
2018-08-18T23:33:13.836Z,84.60
2018-08-18T23:35:48.080Z,84.60
2018-08-18T23:38:22.364Z,84.80
2018-08-18T23:41:00.956Z,85.30
2018-08-18T23:43:35.148Z,85.60
2018-08-18T23:46:09.464Z,85.10
2018-08-18T23:48:43.608Z,85.70
2018-08-18T23:51:20.004Z,85.90
2018-08-18T23:53:54.324Z,85.50
2018-08-18T23:56:29.460Z,86.50
2018-08-18T23:59:03.664Z,86.40
